sensor_id;sensor_type;location;lat;lon;timestamp;pressure;altitude;pressure_sealevel;temperature;humidity
67818;BME280;54614;47.576;7.524;2022-09-24T00:01:28;98285.44;;;27.08;40.97
67818;BME280;54614;47.576;7.524;2022-09-24T00:03:59;98283.91;;;27.12;40.66
67818;BME280;54614;47.576;7.524;2022-09-24T00:06:27;98288.03;;;27.15;40.53
67818;BME280;54614;47.576;7.524;2022-09-24T00:08:55;98277.69;;;27.12;40.54
67818;BME280;54614;47.576;7.524;2022-09-24T00:11:25;98273.59;;;27.09;40.59
67818;BME280;54614;47.576;7.524;2022-09-24T00:13:51;98265.50;;;27.09;40.85
67818;BME280;54614;47.576;7.524;2022-09-24T00:16:20;98265.94;;;27.18;40.51
67818;BME280;54614;47.576;7.524;2022-09-24T00:18:47;98263.72;;;27.15;40.63
67818;BME280;54614;47.576;7.524;2022-09-24T00:23:47;98253.03;;;27.20;40.47
67818;BME280;54614;47.576;7.524;2022-09-24T00:26:13;98252.81;;;27.10;40.67
67818;BME280;54614;47.576;7.524;2022-09-24T00:28:58;98242.84;;;27.10;40.57
67818;BME280;54614;47.576;7.524;2022-09-24T00:31:25;98241.78;;;27.11;40.56
67818;BME280;54614;47.576;7.524;2022-09-24T00:33:52;98242.59;;;27.12;40.62
67818;BME280;54614;47.576;7.524;2022-09-24T00:36:21;98232.63;;;27.12;40.43
67818;BME280;54614;47.576;7.524;2022-09-24T00:38:53;98228.50;;;27.10;40.64
67818;BME280;54614;47.576;7.524;2022-09-24T00:41:22;98219.59;;;27.09;40.64
67818;BME280;54614;47.576;7.524;2022-09-24T00:43:49;98217.00;;;27.14;40.56
67818;BME280;54614;47.576;7.524;2022-09-24T00:46:42;98227.56;;;27.16;40.50
67818;BME280;54614;47.576;7.524;2022-09-24T00:49:15;98224.53;;;27.12;40.60
67818;BME280;54614;47.576;7.524;2022-09-24T00:51:46;98225.34;;;27.13;40.69
67818;BME280;54614;47.576;7.524;2022-09-24T00:54:24;98215.84;;;27.10;40.63
67818;BME280;54614;47.576;7.524;2022-09-24T00:56:52;98210.44;;;27.10;40.43
67818;BME280;54614;47.576;7.524;2022-09-24T00:59:22;98196.13;;;27.10;40.61
67818;BME280;54614;47.576;7.524;2022-09-24T01:01:50;98195.88;;;27.11;40.51
67818;BME280;54614;47.576;7.524;2022-09-24T01:04:24;98193.56;;;27.03;40.70
67818;BME280;54614;47.576;7.524;2022-09-24T01:06:52;98198.13;;;27.03;40.91
67818;BME280;54614;47.576;7.524;2022-09-24T01:09:21;98194.59;;;27.02;40.89
67818;BME280;54614;47.576;7.524;2022-09-24T01:15:24;98193.41;;;27.10;40.72
67818;BME280;54614;47.576;7.524;2022-09-24T01:18:10;98187.31;;;27.03;40.90
67818;BME280;54614;47.576;7.524;2022-09-24T01:20:52;98192.13;;;27.01;40.92
67818;BME280;54614;47.576;7.524;2022-09-24T01:24:17;98194.84;;;27.01;40.81
67818;BME280;54614;47.576;7.524;2022-09-24T01:30:07;98186.28;;;27.04;40.77
67818;BME280;54614;47.576;7.524;2022-09-24T01:32:56;98185.56;;;27.08;40.63
67818;BME280;54614;47.576;7.524;2022-09-24T01:35:33;98180.50;;;27.12;40.73
67818;BME280;54614;47.576;7.524;2022-09-24T01:38:19;98180.41;;;27.07;40.79
67818;BME280;54614;47.576;7.524;2022-09-24T01:40:49;98185.94;;;27.00;40.92
67818;BME280;54614;47.576;7.524;2022-09-24T01:43:23;98178.06;;;26.99;40.99
67818;BME280;54614;47.576;7.524;2022-09-24T01:45:50;98179.31;;;26.96;41.18
67818;BME280;54614;47.576;7.524;2022-09-24T01:48:17;98164.19;;;26.95;41.04
67818;BME280;54614;47.576;7.524;2022-09-24T01:50:56;98167.03;;;27.00;40.79
67818;BME280;54614;47.576;7.524;2022-09-24T01:53:36;98162.31;;;26.95;40.79
67818;BME280;54614;47.576;7.524;2022-09-24T01:56:16;98173.00;;;26.90;41.18
67818;BME280;54614;47.576;7.524;2022-09-24T01:58:56;98173.25;;;27.01;40.73
67818;BME280;54614;47.576;7.524;2022-09-24T02:01:39;98172.66;;;26.99;40.93
67818;BME280;54614;47.576;7.524;2022-09-24T02:04:14;98170.31;;;27.02;40.88
67818;BME280;54614;47.576;7.524;2022-09-24T02:07:00;98158.47;;;27.03;41.11
67818;BME280;54614;47.576;7.524;2022-09-24T02:09:34;98150.84;;;27.00;41.03
67818;BME280;54614;47.576;7.524;2022-09-24T02:12:20;98150.47;;;26.96;41.02
67818;BME280;54614;47.576;7.524;2022-09-24T02:17:30;98150.69;;;27.07;40.79
67818;BME280;54614;47.576;7.524;2022-09-24T02:20:00;98149.78;;;27.01;40.93
67818;BME280;54614;47.576;7.524;2022-09-24T02:22:29;98136.72;;;27.10;40.73
67818;BME280;54614;47.576;7.524;2022-09-24T02:25:00;98138.38;;;27.11;40.81
67818;BME280;54614;47.576;7.524;2022-09-24T02:27:27;98142.50;;;27.02;40.81
67818;BME280;54614;47.576;7.524;2022-09-24T02:29:57;98141.69;;;27.01;41.08
67818;BME280;54614;47.576;7.524;2022-09-24T02:32:28;98141.91;;;27.00;40.77
67818;BME280;54614;47.576;7.524;2022-09-24T02:35:00;98144.13;;;27.03;40.90
67818;BME280;54614;47.576;7.524;2022-09-24T02:37:28;98136.84;;;26.91;41.09
67818;BME280;54614;47.576;7.524;2022-09-24T02:39:54;98134.16;;;26.91;40.94
67818;BME280;54614;47.576;7.524;2022-09-24T02:42:21;98137.31;;;26.88;41.05
67818;BME280;54614;47.576;7.524;2022-09-24T02:44:47;98133.34;;;26.79;41.50
67818;BME280;54614;47.576;7.524;2022-09-24T02:47:14;98143.06;;;26.92;41.23
67818;BME280;54614;47.576;7.524;2022-09-24T02:49:40;98154.44;;;26.94;41.15
67818;BME280;54614;47.576;7.524;2022-09-24T02:52:06;98172.75;;;26.92;41.00
67818;BME280;54614;47.576;7.524;2022-09-24T02:54:31;98167.03;;;26.88;41.14
67818;BME280;54614;47.576;7.524;2022-09-24T02:56:57;98176.63;;;26.84;41.20
67818;BME280;54614;47.576;7.524;2022-09-24T02:59:23;98171.47;;;26.94;41.17
67818;BME280;54614;47.576;7.524;2022-09-24T03:01:49;98175.38;;;26.99;40.87
67818;BME280;54614;47.576;7.524;2022-09-24T03:04:16;98171.94;;;26.91;40.87
67818;BME280;54614;47.576;7.524;2022-09-24T03:06:42;98170.41;;;26.95;41.20
67818;BME280;54614;47.576;7.524;2022-09-24T03:09:11;98179.94;;;26.86;41.12
67818;BME280;54614;47.576;7.524;2022-09-24T03:11:37;98177.00;;;27.00;40.93
67818;BME280;54614;47.576;7.524;2022-09-24T03:14:03;98182.50;;;26.93;41.07
67818;BME280;54614;47.576;7.524;2022-09-24T03:16:29;98181.09;;;27.02;40.99
67818;BME280;54614;47.576;7.524;2022-09-24T03:18:55;98172.91;;;26.97;40.88
67818;BME280;54614;47.576;7.524;2022-09-24T03:21:22;98168.09;;;26.99;40.95
67818;BME280;54614;47.576;7.524;2022-09-24T03:23:48;98169.72;;;27.00;41.05
67818;BME280;54614;47.576;7.524;2022-09-24T03:26:15;98170.28;;;27.14;40.60
67818;BME280;54614;47.576;7.524;2022-09-24T03:28:42;98169.25;;;27.03;40.81
67818;BME280;54614;47.576;7.524;2022-09-24T03:31:08;98173.13;;;27.07;40.74
67818;BME280;54614;47.576;7.524;2022-09-24T03:34:00;98168.09;;;26.99;40.83
67818;BME280;54614;47.576;7.524;2022-09-24T03:36:26;98161.50;;;27.07;40.74
67818;BME280;54614;47.576;7.524;2022-09-24T03:38:54;98158.81;;;27.07;40.68
67818;BME280;54614;47.576;7.524;2022-09-24T03:41:25;98161.75;;;27.05;40.73
67818;BME280;54614;47.576;7.524;2022-09-24T03:43:52;98162.91;;;27.09;40.70
67818;BME280;54614;47.576;7.524;2022-09-24T03:46:18;98154.59;;;26.99;40.99
67818;BME280;54614;47.576;7.524;2022-09-24T03:48:44;98150.59;;;27.02;40.93
67818;BME280;54614;47.576;7.524;2022-09-24T03:51:17;98151.75;;;27.06;40.79
67818;BME280;54614;47.576;7.524;2022-09-24T03:53:45;98152.00;;;26.92;41.11
67818;BME280;54614;47.576;7.524;2022-09-24T03:56:12;98158.94;;;27.00;40.93
67818;BME280;54614;47.576;7.524;2022-09-24T03:58:38;98163.38;;;26.94;40.91
67818;BME280;54614;47.576;7.524;2022-09-24T04:01:06;98154.00;;;26.97;40.86
67818;BME280;54614;47.576;7.524;2022-09-24T04:03:33;98147.75;;;26.96;40.90
67818;BME280;54614;47.576;7.524;2022-09-24T04:05:59;98147.19;;;27.06;40.90
67818;BME280;54614;47.576;7.524;2022-09-24T04:08:25;98142.16;;;26.98;40.81
67818;BME280;54614;47.576;7.524;2022-09-24T04:10:51;98144.25;;;26.96;41.00
67818;BME280;54614;47.576;7.524;2022-09-24T04:13:18;98144.63;;;27.00;40.96
67818;BME280;54614;47.576;7.524;2022-09-24T04:15:45;98147.66;;;26.91;41.21
67818;BME280;54614;47.576;7.524;2022-09-24T04:18:11;98138.97;;;26.89;41.31
67818;BME280;54614;47.576;7.524;2022-09-24T04:20:37;98142.00;;;26.93;40.90
67818;BME280;54614;47.576;7.524;2022-09-24T04:23:03;98141.19;;;26.92;40.99
67818;BME280;54614;47.576;7.524;2022-09-24T04:25:31;98136.97;;;27.08;40.81
67818;BME280;54614;47.576;7.524;2022-09-24T04:28:02;98136.38;;;26.94;41.48
67818;BME280;54614;47.576;7.524;2022-09-24T04:30:31;98137.44;;;26.93;42.35
67818;BME280;54614;47.576;7.524;2022-09-24T04:32:58;98125.59;;;26.94;41.38
67818;BME280;54614;47.576;7.524;2022-09-24T04:35:28;98135.69;;;26.99;41.33
67818;BME280;54614;47.576;7.524;2022-09-24T04:37:55;98140.50;;;26.97;41.70
67818;BME280;54614;47.576;7.524;2022-09-24T04:40:21;98133.59;;;27.01;41.59
67818;BME280;54614;47.576;7.524;2022-09-24T04:42:47;98140.84;;;27.01;41.26
67818;BME280;54614;47.576;7.524;2022-09-24T04:45:15;98136.28;;;27.01;41.05
67818;BME280;54614;47.576;7.524;2022-09-24T04:47:47;98129.94;;;27.07;40.94
67818;BME280;54614;47.576;7.524;2022-09-24T04:50:18;98132.88;;;27.06;40.99
67818;BME280;54614;47.576;7.524;2022-09-24T04:52:44;98128.75;;;27.03;41.04
67818;BME280;54614;47.576;7.524;2022-09-24T04:55:10;98128.72;;;27.15;40.82
67818;BME280;54614;47.576;7.524;2022-09-24T04:57:36;98137.53;;;27.10;41.07
67818;BME280;54614;47.576;7.524;2022-09-24T05:00:07;98130.41;;;27.04;40.91
67818;BME280;54614;47.576;7.524;2022-09-24T05:02:36;98135.91;;;27.09;40.88
67818;BME280;54614;47.576;7.524;2022-09-24T05:05:01;98137.91;;;27.02;40.98
67818;BME280;54614;47.576;7.524;2022-09-24T05:07:27;98129.31;;;27.17;40.68
67818;BME280;54614;47.576;7.524;2022-09-24T05:09:53;98134.13;;;27.15;40.78
67818;BME280;54614;47.576;7.524;2022-09-24T05:12:19;98129.44;;;27.10;40.78
67818;BME280;54614;47.576;7.524;2022-09-24T05:14:45;98144.34;;;27.13;40.76
67818;BME280;54614;47.576;7.524;2022-09-24T05:17:15;98142.72;;;27.12;40.89
67818;BME280;54614;47.576;7.524;2022-09-24T05:19:41;98143.09;;;27.04;40.86
67818;BME280;54614;47.576;7.524;2022-09-24T05:22:07;98138.84;;;27.08;40.81
67818;BME280;54614;47.576;7.524;2022-09-24T05:24:36;98144.63;;;27.00;41.06
67818;BME280;54614;47.576;7.524;2022-09-24T05:27:02;98139.19;;;27.11;40.88
67818;BME280;54614;47.576;7.524;2022-09-24T05:29:41;98147.09;;;26.78;41.67
67818;BME280;54614;47.576;7.524;2022-09-24T05:32:14;98150.94;;;27.05;41.02
67818;BME280;54614;47.576;7.524;2022-09-24T05:34:42;98144.63;;;27.00;40.99
67818;BME280;54614;47.576;7.524;2022-09-24T05:37:10;98147.41;;;26.93;41.40
67818;BME280;54614;47.576;7.524;2022-09-24T05:39:36;98149.88;;;26.94;41.29
67818;BME280;54614;47.576;7.524;2022-09-24T05:42:02;98152.00;;;26.92;41.02
67818;BME280;54614;47.576;7.524;2022-09-24T05:44:31;98153.16;;;26.96;41.21
67818;BME280;54614;47.576;7.524;2022-09-24T05:46:57;98156.00;;;27.02;41.12
67818;BME280;54614;47.576;7.524;2022-09-24T05:49:24;98157.97;;;26.94;41.16
67818;BME280;54614;47.576;7.524;2022-09-24T05:51:50;98157.84;;;27.13;41.02
67818;BME280;54614;47.576;7.524;2022-09-24T05:54:22;98159.03;;;27.05;40.72
67818;BME280;54614;47.576;7.524;2022-09-24T05:56:48;98159.41;;;26.85;41.44
67818;BME280;54614;47.576;7.524;2022-09-24T05:59:14;98162.75;;;26.22;43.02
67818;BME280;54614;47.576;7.524;2022-09-24T06:01:40;98161.41;;;26.43;42.55
67818;BME280;54614;47.576;7.524;2022-09-24T06:04:06;98159.84;;;26.24;43.13
67818;BME280;54614;47.576;7.524;2022-09-24T06:06:33;98168.88;;;26.29;43.21
67818;BME280;54614;47.576;7.524;2022-09-24T06:09:02;98159.28;;;26.45;42.72
67818;BME280;54614;47.576;7.524;2022-09-24T06:11:31;98165.28;;;26.59;42.77
67818;BME280;54614;47.576;7.524;2022-09-24T06:14:02;98163.41;;;26.59;42.47
67818;BME280;54614;47.576;7.524;2022-09-24T06:16:32;98163.63;;;26.46;42.97
67818;BME280;54614;47.576;7.524;2022-09-24T06:18:58;98174.47;;;26.16;43.97
67818;BME280;54614;47.576;7.524;2022-09-24T06:21:24;98163.72;;;26.28;43.79
67818;BME280;54614;47.576;7.524;2022-09-24T06:23:50;98170.19;;;26.62;42.67
67818;BME280;54614;47.576;7.524;2022-09-24T06:26:16;98169.13;;;26.86;41.78
67818;BME280;54614;47.576;7.524;2022-09-24T06:28:43;98181.34;;;27.01;41.76
67818;BME280;54614;47.576;7.524;2022-09-24T06:31:09;98174.88;;;27.02;41.63
67818;BME280;54614;47.576;7.524;2022-09-24T06:33:37;98181.81;;;27.09;41.27
67818;BME280;54614;47.576;7.524;2022-09-24T06:36:04;98174.28;;;27.11;41.25
67818;BME280;54614;47.576;7.524;2022-09-24T06:38:30;98175.72;;;27.02;41.52
67818;BME280;54614;47.576;7.524;2022-09-24T06:41:02;98180.38;;;26.95;41.57
67818;BME280;54614;47.576;7.524;2022-09-24T06:43:29;98180.38;;;26.95;41.43
67818;BME280;54614;47.576;7.524;2022-09-24T06:45:56;98181.94;;;27.03;41.50
67818;BME280;54614;47.576;7.524;2022-09-24T06:48:23;98182.38;;;26.88;41.74
67818;BME280;54614;47.576;7.524;2022-09-24T06:50:51;98183.31;;;26.93;41.57
67818;BME280;54614;47.576;7.524;2022-09-24T06:53:18;98188.84;;;26.87;41.80
67818;BME280;54614;47.576;7.524;2022-09-24T06:55:44;98198.81;;;26.51;43.35
67818;BME280;54614;47.576;7.524;2022-09-24T06:58:13;98189.31;;;26.37;43.83
67818;BME280;54614;47.576;7.524;2022-09-24T07:00:40;98187.50;;;26.31;44.07
67818;BME280;54614;47.576;7.524;2022-09-24T07:03:14;98182.97;;;26.43;43.85
67818;BME280;54614;47.576;7.524;2022-09-24T07:05:41;98192.78;;;26.26;44.42
67818;BME280;54614;47.576;7.524;2022-09-24T07:08:07;98188.44;;;26.25;44.52
67818;BME280;54614;47.576;7.524;2022-09-24T07:10:33;98184.91;;;26.24;44.45
67818;BME280;54614;47.576;7.524;2022-09-24T07:12:59;98188.88;;;26.10;44.52
67818;BME280;54614;47.576;7.524;2022-09-24T07:15:25;98192.03;;;26.07;44.94
67818;BME280;54614;47.576;7.524;2022-09-24T07:17:55;98189.50;;;26.24;44.47
67818;BME280;54614;47.576;7.524;2022-09-24T07:20:22;98200.31;;;26.36;44.19
67818;BME280;54614;47.576;7.524;2022-09-24T07:22:48;98187.22;;;26.51;43.82
67818;BME280;54614;47.576;7.524;2022-09-24T07:25:14;98199.44;;;26.23;44.51
67818;BME280;54614;47.576;7.524;2022-09-24T07:27:40;98201.06;;;26.13;45.02
67818;BME280;54614;47.576;7.524;2022-09-24T07:30:07;98188.66;;;26.12;44.85
67818;BME280;54614;47.576;7.524;2022-09-24T07:32:34;98194.16;;;26.17;44.68
67818;BME280;54614;47.576;7.524;2022-09-24T07:35:00;98194.97;;;26.17;44.83
67818;BME280;54614;47.576;7.524;2022-09-24T07:37:26;98195.94;;;26.23;44.62
67818;BME280;54614;47.576;7.524;2022-09-24T07:39:52;98193.78;;;26.55;44.08
67818;BME280;54614;47.576;7.524;2022-09-24T07:42:18;98197.41;;;26.72;43.78
67818;BME280;54614;47.576;7.524;2022-09-24T07:44:44;98198.22;;;26.84;42.85
67818;BME280;54614;47.576;7.524;2022-09-24T07:47:12;98197.50;;;27.24;41.99
67818;BME280;54614;47.576;7.524;2022-09-24T07:49:38;98191.84;;;27.25;41.49
67818;BME280;54614;47.576;7.524;2022-09-24T07:52:04;98191.53;;;26.75;42.75
67818;BME280;54614;47.576;7.524;2022-09-24T07:54:30;98196.34;;;26.38;43.75
67818;BME280;54614;47.576;7.524;2022-09-24T07:56:56;98200.09;;;26.37;43.90
67818;BME280;54614;47.576;7.524;2022-09-24T07:59:22;98199.13;;;26.31;43.80
67818;BME280;54614;47.576;7.524;2022-09-24T08:01:48;98201.53;;;26.63;42.99
67818;BME280;54614;47.576;7.524;2022-09-24T08:04:14;98191.41;;;26.93;42.09
67818;BME280;54614;47.576;7.524;2022-09-24T08:06:39;98195.31;;;27.09;41.81
67818;BME280;54614;47.576;7.524;2022-09-24T08:09:05;98203.88;;;27.06;41.86
67818;BME280;54614;47.576;7.524;2022-09-24T08:11:35;98199.78;;;27.04;41.78
67818;BME280;54614;47.576;7.524;2022-09-24T08:14:01;98206.34;;;27.08;41.66
67818;BME280;54614;47.576;7.524;2022-09-24T08:16:27;98209.03;;;27.08;41.67
67818;BME280;54614;47.576;7.524;2022-09-24T08:18:53;98209.03;;;27.08;41.61
67818;BME280;54614;47.576;7.524;2022-09-24T08:21:20;98214.44;;;27.08;41.57
67818;BME280;54614;47.576;7.524;2022-09-24T08:23:47;98217.81;;;27.15;41.61
67818;BME280;54614;47.576;7.524;2022-09-24T08:26:13;98221.69;;;26.95;41.83
67818;BME280;54614;47.576;7.524;2022-09-24T08:28:40;98222.16;;;26.92;41.87
67818;BME280;54614;47.576;7.524;2022-09-24T08:31:10;98216.91;;;27.09;41.36
67818;BME280;54614;47.576;7.524;2022-09-24T08:33:37;98219.59;;;27.09;41.70
67818;BME280;54614;47.576;7.524;2022-09-24T08:36:07;98221.25;;;27.10;41.45
67818;BME280;54614;47.576;7.524;2022-09-24T08:38:34;98217.47;;;27.11;41.54
67818;BME280;54614;47.576;7.524;2022-09-24T08:47:29;98228.03;;;27.24;41.17
67818;BME280;54614;47.576;7.524;2022-09-24T08:55:21;98240.34;;;26.85;42.32
67818;BME280;54614;47.576;7.524;2022-09-24T08:58:37;98247.16;;;26.88;42.48
67818;BME280;54614;47.576;7.524;2022-09-24T09:00:55;98247.50;;;26.68;42.98
67818;BME280;54614;47.576;7.524;2022-09-24T09:06:39;98236.72;;;26.68;42.86
67818;BME280;54614;47.576;7.524;2022-09-24T09:09:17;98230.38;;;26.74;42.61
67818;BME280;54614;47.576;7.524;2022-09-24T09:11:58;98233.19;;;26.68;42.63
67818;BME280;54614;47.576;7.524;2022-09-24T09:15:16;98233.44;;;26.78;42.43
67818;BME280;54614;47.576;7.524;2022-09-24T09:20:19;98230.34;;;26.39;43.67
67818;BME280;54614;47.576;7.524;2022-09-24T09:22:51;98233.69;;;26.23;44.28
67818;BME280;54614;47.576;7.524;2022-09-24T09:28:11;98231.44;;;26.20;44.21
67818;BME280;54614;47.576;7.524;2022-09-24T09:31:06;98228.28;;;26.23;43.94
67818;BME280;54614;47.576;7.524;2022-09-24T09:39:51;98242.19;;;26.38;43.76
67818;BME280;54614;47.576;7.524;2022-09-24T09:42:31;98233.88;;;26.63;43.28
67818;BME280;54614;47.576;7.524;2022-09-24T09:45:07;98241.75;;;26.76;42.88
67818;BME280;54614;47.576;7.524;2022-09-24T09:47:56;98232.97;;;26.81;42.70
67818;BME280;54614;47.576;7.524;2022-09-24T09:53:23;98232.72;;;26.59;43.94
67818;BME280;54614;47.576;7.524;2022-09-24T09:56:06;98234.47;;;26.53;44.06
67818;BME280;54614;47.576;7.524;2022-09-24T09:58:40;98232.22;;;26.50;44.13
67818;BME280;54614;47.576;7.524;2022-09-24T10:01:12;98231.06;;;26.46;44.31
67818;BME280;54614;47.576;7.524;2022-09-24T10:03:46;98226.03;;;26.50;44.56
67818;BME280;54614;47.576;7.524;2022-09-24T10:06:26;98222.97;;;26.58;44.22
67818;BME280;54614;47.576;7.524;2022-09-24T10:08:52;98225.09;;;26.56;43.72
67818;BME280;54614;47.576;7.524;2022-09-24T10:11:21;98212.41;;;26.56;43.62
67818;BME280;54614;47.576;7.524;2022-09-24T10:14:00;98209.03;;;26.61;43.75
67818;BME280;54614;47.576;7.524;2022-09-24T10:16:26;98214.19;;;26.62;43.38
67818;BME280;54614;47.576;7.524;2022-09-24T10:18:52;98219.94;;;26.54;43.92
67818;BME280;54614;47.576;7.524;2022-09-24T10:21:44;98210.28;;;26.35;45.34
67818;BME280;54614;47.576;7.524;2022-09-24T10:24:25;98206.25;;;26.26;45.33
67818;BME280;54614;47.576;7.524;2022-09-24T10:26:52;98208.06;;;26.32;45.15
67818;BME280;54614;47.576;7.524;2022-09-24T10:29:31;98199.44;;;26.23;45.33
67818;BME280;54614;47.576;7.524;2022-09-24T10:32:20;98209.88;;;26.20;45.41
67818;BME280;54614;47.576;7.524;2022-09-24T10:35:19;98198.03;;;26.21;45.46
67818;BME280;54614;47.576;7.524;2022-09-24T10:37:57;98202.72;;;26.14;45.67
67818;BME280;54614;47.576;7.524;2022-09-24T10:40:38;98211.97;;;26.18;45.47
67818;BME280;54614;47.576;7.524;2022-09-24T10:43:05;98203.44;;;26.21;45.39
67818;BME280;54614;47.576;7.524;2022-09-24T10:48:44;98196.03;;;26.16;45.22
67818;BME280;54614;47.576;7.524;2022-09-24T10:51:47;98203.19;;;26.22;45.21
67818;BME280;54614;47.576;7.524;2022-09-24T10:54:38;98191.94;;;26.25;45.27
67818;BME280;54614;47.576;7.524;2022-09-24T11:06:47;98186.47;;;26.32;45.07
67818;BME280;54614;47.576;7.524;2022-09-24T11:12:12;98191.53;;;26.40;45.13
67818;BME280;54614;47.576;7.524;2022-09-24T11:18:01;98178.41;;;26.90;43.19
67818;BME280;54614;47.576;7.524;2022-09-24T11:20:44;98172.78;;;27.04;42.67
67818;BME280;54614;47.576;7.524;2022-09-24T11:38:08;98148.72;;;26.67;45.20
67818;BME280;54614;47.576;7.524;2022-09-24T11:44:04;98147.78;;;26.73;45.01
67818;BME280;54614;47.576;7.524;2022-09-24T11:52:18;98135.25;;;26.67;45.21
67818;BME280;54614;47.576;7.524;2022-09-24T11:55:13;98137.00;;;26.61;45.52
67818;BME280;54614;47.576;7.524;2022-09-24T12:01:11;98124.69;;;26.77;44.96
67818;BME280;54614;47.576;7.524;2022-09-24T12:04:47;98125.16;;;26.74;44.55
67818;BME280;54614;47.576;7.524;2022-09-24T12:07:05;98125.28;;;26.56;45.75
67818;BME280;54614;47.576;7.524;2022-09-24T12:10:19;98125.16;;;26.74;44.88
67818;BME280;54614;47.576;7.524;2022-09-24T12:12:53;98127.34;;;26.89;44.59
67818;BME280;54614;47.576;7.524;2022-09-24T12:15:28;98118.44;;;26.88;44.32
67818;BME280;54614;47.576;7.524;2022-09-24T12:17:59;98119.84;;;26.91;44.36
67818;BME280;54614;47.576;7.524;2022-09-24T12:20:43;98123.59;;;27.02;43.59
67818;BME280;54614;47.576;7.524;2022-09-24T12:23:14;98119.19;;;27.24;43.28
67818;BME280;54614;47.576;7.524;2022-09-24T12:25:47;98116.97;;;27.21;43.16
67818;BME280;54614;47.576;7.524;2022-09-24T12:28:19;98114.28;;;27.21;43.30
67818;BME280;54614;47.576;7.524;2022-09-24T12:31:26;98104.97;;;27.28;43.07
67818;BME280;54614;47.576;7.524;2022-09-24T12:34:47;98106.84;;;27.28;43.02
67818;BME280;54614;47.576;7.524;2022-09-24T12:37:22;98105.78;;;27.29;42.98
67818;BME280;54614;47.576;7.524;2022-09-24T12:42:49;98113.06;;;27.28;42.93
67818;BME280;54614;47.576;7.524;2022-09-24T12:45:21;98118.22;;;27.30;42.83
67818;BME280;54614;47.576;7.524;2022-09-24T12:47:56;98119.28;;;27.29;43.01
67818;BME280;54614;47.576;7.524;2022-09-24T12:50:27;98122.22;;;27.27;42.85
67818;BME280;54614;47.576;7.524;2022-09-24T12:52:54;98124.59;;;27.24;42.81
67818;BME280;54614;47.576;7.524;2022-09-24T12:55:23;98124.25;;;27.20;42.84
67818;BME280;54614;47.576;7.524;2022-09-24T13:01:28;98105.22;;;27.27;42.96
67818;BME280;54614;47.576;7.524;2022-09-24T13:04:26;98112.00;;;27.29;42.79
67818;BME280;54614;47.576;7.524;2022-09-24T13:06:52;98109.06;;;27.31;42.62
67818;BME280;54614;47.576;7.524;2022-09-24T13:09:36;98119.53;;;27.27;42.82
67818;BME280;54614;47.576;7.524;2022-09-24T13:12:19;98116.72;;;27.22;42.96
67818;BME280;54614;47.576;7.524;2022-09-24T13:15:35;98120.50;;;27.21;42.85
67818;BME280;54614;47.576;7.524;2022-09-24T13:20:33;98104.06;;;27.23;42.89
67818;BME280;54614;47.576;7.524;2022-09-24T13:26:06;98099.47;;;27.23;42.77
67818;BME280;54614;47.576;7.524;2022-09-24T13:28:57;98103.22;;;27.22;42.60
67818;BME280;54614;47.576;7.524;2022-09-24T13:36:43;98089.63;;;27.17;42.49
67818;BME280;54614;47.576;7.524;2022-09-24T13:39:26;98095.84;;;27.18;42.55
67818;BME280;54614;47.576;7.524;2022-09-24T13:42:38;98095.13;;;27.22;42.57
67818;BME280;54614;47.576;7.524;2022-09-24T13:45:17;98096.91;;;27.17;42.63
67818;BME280;54614;47.576;7.524;2022-09-24T13:48:00;98101.00;;;27.19;42.63
67818;BME280;54614;47.576;7.524;2022-09-24T13:50:32;98093.00;;;27.24;42.42
67818;BME280;54614;47.576;7.524;2022-09-24T13:53:21;98082.22;;;27.24;42.39
67818;BME280;54614;47.576;7.524;2022-09-24T13:56:04;98081.88;;;27.21;42.59
67818;BME280;54614;47.576;7.524;2022-09-24T13:58:36;98078.03;;;27.17;42.46
67818;BME280;54614;47.576;7.524;2022-09-24T14:01:12;98078.59;;;27.19;42.34
67818;BME280;54614;47.576;7.524;2022-09-24T14:03:41;98068.94;;;27.23;42.34
67818;BME280;54614;47.576;7.524;2022-09-24T14:06:18;98072.22;;;27.25;42.44
67818;BME280;54614;47.576;7.524;2022-09-24T14:08:48;98070.50;;;27.19;42.50
67818;BME280;54614;47.576;7.524;2022-09-24T14:11:21;98068.94;;;27.23;42.49
67818;BME280;54614;47.576;7.524;2022-09-24T14:13:51;98075.31;;;27.17;42.56
67818;BME280;54614;47.576;7.524;2022-09-24T14:16:25;98074.63;;;27.10;42.93
67818;BME280;54614;47.576;7.524;2022-09-24T14:19:02;98074.44;;;27.00;42.79
67818;BME280;54614;47.576;7.524;2022-09-24T14:21:46;98071.28;;;26.79;43.78
67818;BME280;54614;47.576;7.524;2022-09-24T14:27:00;98067.16;;;26.88;43.59
67818;BME280;54614;47.576;7.524;2022-09-24T14:29:45;98076.66;;;26.91;43.61
67818;BME280;54614;47.576;7.524;2022-09-24T14:32:36;98074.53;;;26.93;43.43
67818;BME280;54614;47.576;7.524;2022-09-24T14:35:36;98076.19;;;26.94;43.60
67818;BME280;54614;47.576;7.524;2022-09-24T14:38:05;98073.97;;;26.91;43.60
67818;BME280;54614;47.576;7.524;2022-09-24T14:41:22;98064.00;;;26.91;43.60
67818;BME280;54614;47.576;7.524;2022-09-24T14:44:11;98061.19;;;26.86;43.64
67818;BME280;54614;47.576;7.524;2022-09-24T14:46:51;98065.53;;;26.87;43.85
67818;BME280;54614;47.576;7.524;2022-09-24T14:49:31;98078.34;;;26.80;44.22
67818;BME280;54614;47.576;7.524;2022-09-24T14:52:29;98070.97;;;26.64;44.72
67818;BME280;54614;47.576;7.524;2022-09-24T14:55:34;98068.03;;;26.65;44.54
67818;BME280;54614;47.576;7.524;2022-09-24T14:57:49;98066.97;;;26.67;44.57
67818;BME280;54614;47.576;7.524;2022-09-24T15:00:35;98061.91;;;26.82;44.11
67818;BME280;54614;47.576;7.524;2022-09-24T15:03:16;98073.00;;;27.09;43.26
67818;BME280;54614;47.576;7.524;2022-09-24T15:05:46;98065.72;;;27.38;42.92
67818;BME280;54614;47.576;7.524;2022-09-24T15:10:58;98076.72;;;27.19;42.91
67818;BME280;54614;47.576;7.524;2022-09-24T15:13:31;98071.66;;;27.23;42.74
67818;BME280;54614;47.576;7.524;2022-09-24T15:16:19;98058.50;;;27.26;42.65
67818;BME280;54614;47.576;7.524;2022-09-24T15:19:20;98060.75;;;27.18;42.78
67818;BME280;54614;47.576;7.524;2022-09-24T15:21:52;98054.78;;;27.16;42.98